メインページ
METAR-TAF:

METAR-TAF

空港 :

重慶江北国際空港

重慶, 中華人民共和国

緯度: 29-31N, 経度: 106-29E, 海抜: 351m

現時点の気象観測

当レポートは1時間8分前の03:00(UTC)に作成
北西の風 10kt、西からの間で変化する
気温 17°C
湿度 94%
気圧 1016 hPa
視程: 3500m
高度600ftの雲は散在している
高度1200ftの雲は散在している
高度4000ftの曇り
弱いにわか雨, 靄

METAR: ZUCK 220300Z 31005MPS 270V350 3500 -SHRA BR SCT006 SCT012 OVC040 17/16 Q1016 NOSIG

時間: 12:08 (04:08 UTC)

予報

当レポートは9時間0分前の19:08(UTC)に作成
予報は22日の 00時(UTC)から 22日の 24時(UTC)まで有効
北/北東の風 16kt
視程: 3500m
高度500ftの雲はほとんどない
高度1200ftの雲は散在している
高度3300ftの曇り
にわか雨, 靄
22日の 01時(UTC)から 22日の 02時(UTC)まで徐々に
弱いにわか雨
22日の 07時(UTC)から 22日の 08時(UTC)まで徐々に
西/北西の風 8kt
視程: 5000m
高度3000ftの雲は散在している

TAF: ZUCK 211908Z 2200/2224 02008MPS 3500 SHRA BR FEW005 SCT012 OVC033 TX26/2207Z TN21/2222Z BECMG 2201/2202 -SHRA BECMG 2207/2208 30004MPS 5000 BR SCT030

4,000以上の空港の気象観測と天気予報(METAR報とTAF報)

利用可能な観測所は地図上に黄色い丸と赤い丸で示す。

丸の上にカーソルを重ねると観測所名を参照できる。

次にクリックすると気象観測と天気予報を参照できる。

マップの切り替え:黒色「×」印の緑ボタンをクリックして拡大、「-」印の緑ボタンをクリックして縮小、緑色の三角印をクリックして隣りの地図に切り替え


METAR-TAF: